createdAt,value
2022-12-20T00:01:34.474Z,9.00
2022-12-20T00:04:05.257Z,9.00
2022-12-20T00:06:33.692Z,9.00
2022-12-20T00:09:02.800Z,9.00
2022-12-20T00:11:30.222Z,9.10
2022-12-20T00:13:57.695Z,9.10
2022-12-20T00:16:27.773Z,9.10
2022-12-20T00:19:00.401Z,9.20
2022-12-20T00:21:27.997Z,9.20
2022-12-20T00:23:55.226Z,9.20
2022-12-20T00:26:25.721Z,9.30
2022-12-20T00:28:53.852Z,9.30
2022-12-20T00:31:23.145Z,9.40
2022-12-20T00:33:52.116Z,9.40
2022-12-20T00:36:20.636Z,9.40
2022-12-20T00:38:49.473Z,9.40
2022-12-20T00:41:18.684Z,9.50
2022-12-20T00:43:45.787Z,9.50
2022-12-20T00:46:14.552Z,9.60
2022-12-20T00:48:41.451Z,9.60
2022-12-20T00:51:11.489Z,9.70
2022-12-20T00:53:39.118Z,9.70
2022-12-20T00:56:07.037Z,9.60
2022-12-20T00:58:35.858Z,9.60
2022-12-20T01:01:03.715Z,9.60
2022-12-20T01:03:30.873Z,9.70
2022-12-20T01:06:01.556Z,9.70
2022-12-20T01:08:31.114Z,9.70
2022-12-20T01:11:18.503Z,9.70
2022-12-20T01:13:48.587Z,9.80
2022-12-20T01:16:22.602Z,9.80
2022-12-20T01:18:49.946Z,9.80
2022-12-20T01:21:18.429Z,9.80
2022-12-20T01:23:46.041Z,9.80
2022-12-20T01:26:15.316Z,9.80
2022-12-20T01:28:44.029Z,9.80
2022-12-20T01:31:13.469Z,9.70
2022-12-20T01:33:40.480Z,9.70
2022-12-20T01:36:11.530Z,9.60
2022-12-20T01:38:38.728Z,9.50
2022-12-20T01:41:06.108Z,9.60
2022-12-20T01:43:58.101Z,9.50
2022-12-20T01:46:30.714Z,9.40
2022-12-20T01:49:21.770Z,9.40
2022-12-20T01:52:11.415Z,9.30
2022-12-20T01:55:12.195Z,9.30
2022-12-20T01:57:47.954Z,9.20
2022-12-20T02:00:16.908Z,9.20
2022-12-20T02:02:47.885Z,9.20
2022-12-20T02:05:17.569Z,9.20
2022-12-20T02:07:46.691Z,9.20
2022-12-20T02:10:13.544Z,9.20
2022-12-20T02:12:46.095Z,9.20
2022-12-20T02:15:31.786Z,9.20
2022-12-20T02:18:24.168Z,9.20
2022-12-20T02:21:24.119Z,9.20
2022-12-20T02:24:19.665Z,9.20
2022-12-20T02:27:04.387Z,9.20
2022-12-20T02:30:10.878Z,9.20
2022-12-20T02:33:07.397Z,9.20
2022-12-20T02:35:37.956Z,9.10
2022-12-20T02:38:28.640Z,9.10
2022-12-20T02:41:09.864Z,9.10
2022-12-20T02:44:02.071Z,9.10
2022-12-20T02:46:29.727Z,9.20
2022-12-20T02:49:02.386Z,9.20
2022-12-20T02:51:32.293Z,9.20
2022-12-20T02:54:00.425Z,9.10
2022-12-20T02:56:34.975Z,9.10
2022-12-20T02:59:10.065Z,9.10
2022-12-20T03:01:42.432Z,9.20
2022-12-20T03:04:09.459Z,9.20
2022-12-20T03:06:36.350Z,9.20
2022-12-20T03:09:03.888Z,9.20
2022-12-20T03:11:30.827Z,9.20
2022-12-20T03:13:57.560Z,9.20
2022-12-20T03:16:24.405Z,9.20
2022-12-20T03:18:51.386Z,9.20
2022-12-20T03:21:18.130Z,9.30
2022-12-20T03:23:44.911Z,9.30
2022-12-20T03:26:12.878Z,9.30
2022-12-20T03:28:39.732Z,9.20
2022-12-20T03:31:06.892Z,9.30
2022-12-20T03:33:33.708Z,9.20
2022-12-20T03:36:00.464Z,9.30
2022-12-20T03:38:27.295Z,9.40
2022-12-20T03:40:54.106Z,9.40
2022-12-20T03:43:20.879Z,9.50
2022-12-20T03:45:47.741Z,9.50
2022-12-20T03:48:14.659Z,9.50
2022-12-20T03:50:41.531Z,9.50
2022-12-20T03:53:08.345Z,9.50
2022-12-20T03:55:35.351Z,9.60
2022-12-20T03:58:02.577Z,9.60
2022-12-20T04:00:32.564Z,9.60
2022-12-20T04:02:59.480Z,9.60
2022-12-20T04:05:26.344Z,9.70
2022-12-20T04:07:53.057Z,9.70
2022-12-20T04:10:19.830Z,9.70
2022-12-20T04:12:46.826Z,9.80
2022-12-20T04:15:13.727Z,9.80
2022-12-20T04:17:41.116Z,9.80
2022-12-20T04:20:21.948Z,9.80
2022-12-20T04:22:50.515Z,9.80
2022-12-20T04:25:19.421Z,9.80
2022-12-20T04:27:46.628Z,9.80
2022-12-20T04:30:13.730Z,9.90
2022-12-20T04:32:40.662Z,9.90
2022-12-20T04:35:07.856Z,9.90
2022-12-20T04:37:34.680Z,9.90
2022-12-20T04:40:01.594Z,9.90
2022-12-20T04:42:28.528Z,9.90
2022-12-20T04:44:55.307Z,10.00
2022-12-20T04:47:22.692Z,10.00
2022-12-20T04:49:49.463Z,10.10
2022-12-20T04:52:34.719Z,10.10
2022-12-20T04:55:01.602Z,10.10
2022-12-20T04:57:28.380Z,10.20
2022-12-20T04:59:55.271Z,10.20
2022-12-20T05:02:22.260Z,10.20
2022-12-20T05:04:49.078Z,10.20
2022-12-20T05:07:15.833Z,10.20
2022-12-20T05:09:42.614Z,10.20
2022-12-20T05:12:09.397Z,10.20
2022-12-20T05:14:36.172Z,10.20
2022-12-20T05:17:03.089Z,10.20
2022-12-20T05:19:30.036Z,10.10
2022-12-20T05:22:15.293Z,10.10
2022-12-20T05:25:00.861Z,10.10
2022-12-20T05:27:27.996Z,10.10
2022-12-20T05:29:56.141Z,10.10
2022-12-20T05:32:22.888Z,10.10
2022-12-20T05:34:49.768Z,10.10
2022-12-20T05:37:16.557Z,10.00
2022-12-20T05:39:43.426Z,10.10
2022-12-20T05:42:10.384Z,10.00
2022-12-20T05:44:37.697Z,10.10
2022-12-20T05:47:04.739Z,10.00
2022-12-20T05:49:34.114Z,10.10
2022-12-20T05:52:02.511Z,10.10
2022-12-20T05:54:29.348Z,10.10
2022-12-20T05:56:56.078Z,10.10
2022-12-20T05:59:22.976Z,10.20
2022-12-20T06:01:49.867Z,10.20
2022-12-20T06:04:17.761Z,10.20
2022-12-20T06:06:44.623Z,10.20
2022-12-20T06:09:12.079Z,10.30
2022-12-20T06:11:38.807Z,10.30
2022-12-20T06:14:05.612Z,10.30
2022-12-20T06:16:32.643Z,10.30
2022-12-20T06:19:00.711Z,10.40
2022-12-20T06:21:28.531Z,10.40
2022-12-20T06:23:55.468Z,10.40
2022-12-20T06:26:25.249Z,10.40
2022-12-20T06:28:55.155Z,10.50
2022-12-20T06:31:22.233Z,10.40
2022-12-20T06:33:50.013Z,10.50
2022-12-20T06:36:16.976Z,10.50
2022-12-20T06:38:44.011Z,10.50
2022-12-20T06:41:10.949Z,10.50
2022-12-20T06:43:37.839Z,10.50
2022-12-20T06:46:04.977Z,10.50
2022-12-20T06:48:32.177Z,10.40
2022-12-20T06:50:59.272Z,10.40
2022-12-20T06:53:26.346Z,10.40
2022-12-20T06:55:53.774Z,10.50
2022-12-20T06:58:21.151Z,10.40
2022-12-20T07:00:48.576Z,10.40
2022-12-20T07:03:15.690Z,10.50
2022-12-20T07:05:42.639Z,10.50
2022-12-20T07:08:09.775Z,10.50
2022-12-20T07:10:38.270Z,10.50
2022-12-20T07:13:05.308Z,10.50
2022-12-20T07:15:32.616Z,10.50
2022-12-20T07:17:59.667Z,10.60
2022-12-20T07:20:26.714Z,10.60
2022-12-20T07:22:53.619Z,10.60
2022-12-20T07:25:20.672Z,10.60
2022-12-20T07:27:50.052Z,10.70
2022-12-20T07:30:18.544Z,10.60
2022-12-20T07:32:45.897Z,10.60
2022-12-20T07:35:14.393Z,10.60
2022-12-20T07:37:42.061Z,10.60
2022-12-20T07:40:09.658Z,10.60
2022-12-20T07:42:40.303Z,10.60
2022-12-20T07:45:10.220Z,10.50
2022-12-20T07:47:37.288Z,10.50
2022-12-20T07:50:04.488Z,10.50
2022-12-20T07:52:34.432Z,10.50
2022-12-20T07:55:06.895Z,10.40
2022-12-20T07:58:02.342Z,10.40
2022-12-20T08:00:32.663Z,10.30
2022-12-20T08:03:06.387Z,10.30
2022-12-20T08:05:38.398Z,10.20
2022-12-20T08:08:06.609Z,10.20
2022-12-20T08:10:34.100Z,10.10
2022-12-20T08:13:01.280Z,10.10
2022-12-20T08:15:29.758Z,10.00
2022-12-20T08:17:56.705Z,10.00
2022-12-20T08:20:23.736Z,10.00
2022-12-20T08:22:50.744Z,10.00
2022-12-20T08:25:17.770Z,10.00
2022-12-20T08:27:44.973Z,9.90
2022-12-20T08:30:12.607Z,9.90
2022-12-20T08:32:39.695Z,9.90
2022-12-20T08:35:10.244Z,9.90
2022-12-20T08:37:37.149Z,9.90
2022-12-20T08:40:04.689Z,9.90
2022-12-20T08:42:32.029Z,9.90
2022-12-20T08:44:59.090Z,9.90
2022-12-20T08:47:32.578Z,9.90
2022-12-20T08:49:59.397Z,9.90
2022-12-20T08:52:26.677Z,9.90
2022-12-20T08:54:54.676Z,9.90
2022-12-20T08:57:40.683Z,9.90
2022-12-20T09:00:08.348Z,9.90
2022-12-20T09:02:36.242Z,9.90
2022-12-20T09:05:05.297Z,9.80
2022-12-20T09:07:32.355Z,9.70
2022-12-20T09:09:59.495Z,9.70
2022-12-20T09:12:26.996Z,9.60
2022-12-20T09:14:54.035Z,9.60
2022-12-20T09:17:21.341Z,9.60
2022-12-20T09:19:49.638Z,9.60
2022-12-20T09:22:16.598Z,9.60
2022-12-20T09:24:43.718Z,9.60
2022-12-20T09:27:10.627Z,9.50
2022-12-20T09:29:37.478Z,9.60
2022-12-20T09:32:04.579Z,9.60
2022-12-20T09:34:31.654Z,9.60
2022-12-20T09:36:58.613Z,9.60
2022-12-20T09:39:25.518Z,9.60
2022-12-20T09:41:52.929Z,9.60
2022-12-20T09:44:27.746Z,9.60
2022-12-20T09:47:10.055Z,9.60
2022-12-20T09:49:42.742Z,9.70
2022-12-20T09:52:09.665Z,9.70
2022-12-20T09:54:49.947Z,9.70
2022-12-20T09:58:09.045Z,9.70
2022-12-20T10:00:56.687Z,9.70
2022-12-20T10:03:27.968Z,9.70
2022-12-20T10:05:57.238Z,9.70
2022-12-20T10:08:56.807Z,9.70
2022-12-20T10:11:51.602Z,9.70
2022-12-20T10:14:33.018Z,9.80
2022-12-20T10:17:13.307Z,9.80
2022-12-20T10:20:06.659Z,9.80
2022-12-20T10:22:33.586Z,9.90
2022-12-20T10:25:19.811Z,9.90
2022-12-20T10:27:49.873Z,9.90
2022-12-20T10:30:23.031Z,9.90
2022-12-20T10:32:52.604Z,9.90
2022-12-20T10:35:36.295Z,9.90
2022-12-20T10:38:08.362Z,10.00
2022-12-20T10:43:40.492Z,10.00
2022-12-20T10:46:09.100Z,9.90
2022-12-20T10:48:41.358Z,10.00
2022-12-20T10:51:16.237Z,10.00
2022-12-20T10:54:01.810Z,10.00
2022-12-20T10:56:35.156Z,10.00
2022-12-20T10:59:21.351Z,10.00
2022-12-20T11:01:49.720Z,10.10
2022-12-20T11:04:35.530Z,10.10
2022-12-20T11:07:22.326Z,10.10
2022-12-20T11:09:58.541Z,10.10
2022-12-20T11:12:25.594Z,10.10
2022-12-20T11:15:10.167Z,10.20
2022-12-20T11:17:43.627Z,10.20
2022-12-20T11:21:04.304Z,10.10
2022-12-20T11:23:47.057Z,10.10
2022-12-20T11:26:32.468Z,10.10
2022-12-20T11:29:15.528Z,10.10
2022-12-20T11:31:58.585Z,10.20
2022-12-20T11:34:46.885Z,10.20
2022-12-20T11:37:25.775Z,10.20
2022-12-20T11:40:29.820Z,10.20
2022-12-20T11:43:28.052Z,10.20
2022-12-20T11:46:14.953Z,10.20
2022-12-20T11:49:13.600Z,10.20
2022-12-20T11:51:49.895Z,10.20
2022-12-20T11:54:38.919Z,10.20
2022-12-20T11:57:15.562Z,10.20
2022-12-20T11:59:52.471Z,10.20
2022-12-20T12:02:26.268Z,10.20
2022-12-20T12:05:04.517Z,10.20
2022-12-20T12:07:34.182Z,10.20
2022-12-20T12:10:21.691Z,10.20
2022-12-20T12:13:07.319Z,10.20
2022-12-20T12:15:55.377Z,10.20
2022-12-20T12:18:25.581Z,10.20
2022-12-20T12:21:08.975Z,10.20
2022-12-20T12:23:53.054Z,10.20
2022-12-20T12:26:46.580Z,10.20
2022-12-20T12:29:16.257Z,10.20
2022-12-20T12:32:08.820Z,10.20
2022-12-20T12:34:54.001Z,10.30
2022-12-20T12:37:46.344Z,10.20
2022-12-20T12:40:52.085Z,10.20
2022-12-20T12:43:48.832Z,10.30
2022-12-20T12:46:35.361Z,10.30
2022-12-20T12:49:17.146Z,10.30
2022-12-20T12:51:58.136Z,10.20
2022-12-20T12:54:27.367Z,10.30
2022-12-20T12:57:02.562Z,10.30
2022-12-20T12:59:35.249Z,10.20
2022-12-20T13:02:21.115Z,10.30
2022-12-20T13:05:02.641Z,10.30
2022-12-20T13:07:35.446Z,10.30
2022-12-20T13:10:18.378Z,10.30
2022-12-20T13:12:51.154Z,10.30
2022-12-20T13:15:21.253Z,10.30
2022-12-20T13:17:59.249Z,10.30
2022-12-20T13:20:34.527Z,10.30
2022-12-20T13:23:13.540Z,10.30
2022-12-20T13:25:54.344Z,10.30
2022-12-20T13:28:27.247Z,10.30
2022-12-20T13:31:04.779Z,10.30
2022-12-20T13:33:47.228Z,10.30
2022-12-20T13:36:17.112Z,10.30
2022-12-20T13:38:47.103Z,10.40
2022-12-20T13:41:23.853Z,10.30
2022-12-20T13:43:53.971Z,10.40
2022-12-20T13:46:42.262Z,10.40
2022-12-20T13:49:20.741Z,10.30
2022-12-20T13:51:47.885Z,10.30
2022-12-20T13:54:26.831Z,10.40
2022-12-20T13:56:54.759Z,10.40
2022-12-20T13:59:32.044Z,10.40
2022-12-20T14:02:01.865Z,10.40
2022-12-20T14:04:41.868Z,10.40
2022-12-20T14:07:14.675Z,10.40
2022-12-20T14:09:46.034Z,10.40
2022-12-20T14:12:26.197Z,10.40
2022-12-20T14:14:57.061Z,10.40
2022-12-20T14:17:35.696Z,10.40
2022-12-20T14:20:05.877Z,10.40
2022-12-20T14:22:34.395Z,10.40
2022-12-20T14:25:02.769Z,10.40
2022-12-20T14:27:34.354Z,10.40
2022-12-20T14:30:01.243Z,10.40
2022-12-20T14:32:28.289Z,10.40
2022-12-20T14:34:56.268Z,10.40
2022-12-20T14:37:57.095Z,10.40
2022-12-20T14:40:26.963Z,10.40
2022-12-20T14:42:55.974Z,10.40
2022-12-20T14:45:27.580Z,10.40
2022-12-20T14:48:01.984Z,10.40
2022-12-20T14:50:37.596Z,10.40
2022-12-20T14:53:15.669Z,10.50
2022-12-20T14:55:46.652Z,10.40
2022-12-20T14:58:31.425Z,10.40
2022-12-20T15:01:17.803Z,10.40
2022-12-20T15:03:58.846Z,10.40
2022-12-20T15:06:54.405Z,10.50
2022-12-20T15:09:22.075Z,10.40
2022-12-20T15:11:51.753Z,10.40
2022-12-20T15:14:37.326Z,10.40
2022-12-20T15:17:15.800Z,10.40
2022-12-20T15:19:43.657Z,10.40
2022-12-20T15:22:17.175Z,10.40
2022-12-20T15:24:44.140Z,10.40
2022-12-20T15:27:14.514Z,10.40
2022-12-20T15:29:42.128Z,10.40
2022-12-20T15:32:26.318Z,10.40
2022-12-20T15:34:54.760Z,10.40
2022-12-20T15:37:21.610Z,10.40
2022-12-20T15:39:49.479Z,10.30
2022-12-20T15:42:18.821Z,10.30
2022-12-20T15:44:46.508Z,10.40
2022-12-20T15:47:14.351Z,10.30
2022-12-20T15:49:47.887Z,10.30
2022-12-20T15:52:21.327Z,10.30
2022-12-20T15:54:48.359Z,10.30
2022-12-20T15:57:16.162Z,10.30
2022-12-20T16:00:01.677Z,10.30
2022-12-20T16:02:31.414Z,10.30
2022-12-20T16:04:59.243Z,10.30
2022-12-20T16:07:26.388Z,10.30
2022-12-20T16:09:54.210Z,10.30
2022-12-20T16:12:29.672Z,10.30
2022-12-20T16:14:57.039Z,10.30
2022-12-20T16:17:25.315Z,10.30
2022-12-20T16:19:55.065Z,10.20
2022-12-20T16:22:24.207Z,10.30
2022-12-20T16:24:51.914Z,10.20
2022-12-20T16:27:19.298Z,10.20
2022-12-20T16:29:46.255Z,10.20
2022-12-20T16:32:18.701Z,10.20
2022-12-20T16:34:46.005Z,10.20
2022-12-20T16:37:13.290Z,10.20
2022-12-20T16:39:40.808Z,10.20
2022-12-20T16:42:17.759Z,10.20
2022-12-20T16:44:46.455Z,10.20
2022-12-20T16:47:15.119Z,10.20
2022-12-20T16:52:23.258Z,10.10
2022-12-20T16:54:51.194Z,10.10
2022-12-20T16:57:18.311Z,10.20
2022-12-20T16:59:45.321Z,10.10
2022-12-20T17:02:38.647Z,10.20
2022-12-20T17:05:06.249Z,10.20
2022-12-20T17:07:39.602Z,10.10
2022-12-20T17:10:10.386Z,10.20
2022-12-20T17:12:37.536Z,10.20
2022-12-20T17:15:05.048Z,10.10
2022-12-20T17:17:32.076Z,10.10
2022-12-20T17:19:59.241Z,10.10
2022-12-20T17:22:26.424Z,10.20
2022-12-20T17:24:53.605Z,10.10
2022-12-20T17:27:20.984Z,10.20
2022-12-20T17:29:47.994Z,10.10
2022-12-20T17:32:21.273Z,10.20
2022-12-20T17:34:51.056Z,10.20
2022-12-20T17:37:18.313Z,10.10
2022-12-20T17:39:45.436Z,10.10
2022-12-20T17:42:15.860Z,10.10
2022-12-20T17:44:45.930Z,10.10
2022-12-20T17:47:13.028Z,10.10
2022-12-20T17:49:39.908Z,10.10
2022-12-20T17:52:09.432Z,10.10
2022-12-20T17:54:39.980Z,10.10
2022-12-20T17:57:15.518Z,10.10
2022-12-20T17:59:42.775Z,10.10
2022-12-20T18:02:27.980Z,10.10
2022-12-20T18:04:54.972Z,10.10
2022-12-20T18:07:22.177Z,10.10
2022-12-20T18:09:49.825Z,10.10
2022-12-20T18:12:17.292Z,10.10
2022-12-20T18:14:45.116Z,10.10
2022-12-20T18:17:12.100Z,10.10
2022-12-20T18:19:39.545Z,10.10
2022-12-20T18:22:06.821Z,10.10
2022-12-20T18:24:33.713Z,10.10
2022-12-20T18:27:00.537Z,10.10
2022-12-20T18:29:29.826Z,10.10
2022-12-20T18:31:56.793Z,10.10
2022-12-20T18:34:23.875Z,10.10
2022-12-20T18:36:50.800Z,10.10
2022-12-20T18:39:18.176Z,10.20
2022-12-20T18:41:45.065Z,10.20
2022-12-20T18:44:12.049Z,10.20
2022-12-20T18:46:39.464Z,10.10
2022-12-20T18:49:06.643Z,10.10
2022-12-20T18:51:39.318Z,10.10
2022-12-20T18:54:09.207Z,10.10
2022-12-20T18:56:40.224Z,10.10
2022-12-20T18:59:13.064Z,10.10
2022-12-20T19:01:43.181Z,10.10
2022-12-20T19:04:10.976Z,10.10
2022-12-20T19:06:38.729Z,10.10
2022-12-20T19:09:10.941Z,10.10
2022-12-20T19:11:37.868Z,10.10
2022-12-20T19:14:05.004Z,10.10
2022-12-20T19:16:33.106Z,10.00
2022-12-20T19:19:02.221Z,10.10
2022-12-20T19:21:31.839Z,10.10
2022-12-20T19:24:00.924Z,10.10
2022-12-20T19:26:30.020Z,10.00
2022-12-20T19:28:57.435Z,10.10
2022-12-20T19:31:31.856Z,10.10
2022-12-20T19:34:03.653Z,10.10
2022-12-20T19:36:35.744Z,10.00
2022-12-20T19:39:07.224Z,10.10
2022-12-20T19:41:34.359Z,10.00
2022-12-20T19:44:02.277Z,10.00
2022-12-20T19:46:30.292Z,10.00
2022-12-20T19:48:59.236Z,10.00
2022-12-20T19:51:27.278Z,10.00
2022-12-20T19:53:57.481Z,10.00
2022-12-20T19:56:27.002Z,10.00
2022-12-20T19:58:55.496Z,10.00
2022-12-20T20:01:26.278Z,10.10
2022-12-20T20:04:14.059Z,10.00
2022-12-20T20:06:41.697Z,10.00
2022-12-20T20:09:08.763Z,10.00
2022-12-20T20:11:35.971Z,10.00
2022-12-20T20:14:03.956Z,10.00
2022-12-20T20:16:31.966Z,10.10
2022-12-20T20:19:00.484Z,10.10
2022-12-20T20:21:27.750Z,10.10
2022-12-20T20:23:57.206Z,10.00
2022-12-20T20:26:26.470Z,10.00
2022-12-20T20:28:54.280Z,10.10
2022-12-20T20:31:22.762Z,10.10
2022-12-20T20:34:01.479Z,10.00
2022-12-20T20:36:29.869Z,10.00
2022-12-20T20:38:57.132Z,10.00
2022-12-20T20:41:43.898Z,10.00
2022-12-20T20:44:12.172Z,10.00
2022-12-20T20:46:39.211Z,10.00
2022-12-20T20:49:06.144Z,10.00
2022-12-20T20:51:33.133Z,10.00
2022-12-20T20:54:00.100Z,10.10
2022-12-20T20:56:27.017Z,10.10
2022-12-20T20:59:02.924Z,10.00
2022-12-20T21:01:32.630Z,10.10
2022-12-20T21:03:59.742Z,10.00
2022-12-20T21:06:40.415Z,10.00
2022-12-20T21:09:08.199Z,10.00
2022-12-20T21:11:37.202Z,10.00
2022-12-20T21:14:04.601Z,10.00
2022-12-20T21:16:31.517Z,10.00
2022-12-20T21:18:59.370Z,9.90
2022-12-20T21:21:27.105Z,9.90
2022-12-20T21:23:55.367Z,9.90
2022-12-20T21:26:25.092Z,9.90
2022-12-20T21:28:57.071Z,9.90
2022-12-20T21:31:25.027Z,9.80
2022-12-20T21:33:51.953Z,9.80
2022-12-20T21:36:19.715Z,9.80
2022-12-20T21:38:52.830Z,9.80
2022-12-20T21:41:24.033Z,9.80
2022-12-20T21:43:54.371Z,9.80
2022-12-20T21:46:21.756Z,9.80
2022-12-20T21:48:48.844Z,9.80
2022-12-20T21:51:19.449Z,9.80
2022-12-20T21:54:04.382Z,9.70
2022-12-20T21:56:34.334Z,9.80
2022-12-20T21:59:02.664Z,9.70
2022-12-20T22:01:29.916Z,9.70
2022-12-20T22:04:04.381Z,9.70
2022-12-20T22:06:31.985Z,9.70
2022-12-20T22:09:00.767Z,9.60
2022-12-20T22:11:28.268Z,9.60
2022-12-20T22:13:56.489Z,9.60
2022-12-20T22:16:25.773Z,9.60
2022-12-20T22:18:55.516Z,9.60
2022-12-20T22:21:28.643Z,9.60
2022-12-20T22:23:58.653Z,9.50
2022-12-20T22:26:27.821Z,9.50
2022-12-20T22:29:00.924Z,9.50
2022-12-20T22:31:27.896Z,9.50
2022-12-20T22:33:56.115Z,9.50
2022-12-20T22:36:23.735Z,9.50
2022-12-20T22:38:54.868Z,9.50
2022-12-20T22:41:24.360Z,9.50
2022-12-20T22:43:51.337Z,9.40
2022-12-20T22:46:19.820Z,9.30
2022-12-20T22:48:48.554Z,9.40
2022-12-20T22:51:18.274Z,9.30
2022-12-20T22:53:45.484Z,9.40
2022-12-20T22:56:13.119Z,9.40
2022-12-20T22:58:41.419Z,9.40
2022-12-20T23:01:12.349Z,9.40
2022-12-20T23:03:39.783Z,9.40
2022-12-20T23:06:08.273Z,9.40
2022-12-20T23:08:36.926Z,9.30
2022-12-20T23:11:23.643Z,9.30
2022-12-20T23:14:09.231Z,9.30
2022-12-20T23:16:37.967Z,9.30
2022-12-20T23:19:04.868Z,9.30
2022-12-20T23:21:54.902Z,9.30
2022-12-20T23:24:22.107Z,9.30
2022-12-20T23:26:49.262Z,9.20
2022-12-20T23:29:17.356Z,9.30
2022-12-20T23:31:44.386Z,9.20
2022-12-20T23:34:13.525Z,9.20
2022-12-20T23:36:40.944Z,9.20
2022-12-20T23:39:08.344Z,9.20
2022-12-20T23:41:38.004Z,9.20
2022-12-20T23:44:06.333Z,9.10
2022-12-20T23:46:33.865Z,9.10
2022-12-20T23:49:00.699Z,9.00
2022-12-20T23:51:27.742Z,8.90
2022-12-20T23:53:54.574Z,8.90
2022-12-20T23:56:22.844Z,8.90
2022-12-20T23:58:54.006Z,8.90
